createdAt,value
2018-09-30T00:01:41.470Z,10.40
2018-09-30T00:04:10.347Z,10.40
2018-09-30T00:06:38.963Z,10.30
2018-09-30T00:09:07.928Z,10.30
2018-09-30T00:11:36.786Z,10.30
2018-09-30T00:14:07.274Z,10.30
2018-09-30T00:16:35.983Z,10.30
2018-09-30T00:19:05.478Z,10.30
2018-09-30T00:21:33.991Z,10.30
2018-09-30T00:24:08.647Z,10.30
2018-09-30T00:26:42.658Z,10.20
2018-09-30T00:29:11.694Z,10.20
2018-09-30T00:31:40.009Z,10.10
2018-09-30T00:34:13.963Z,10.10
2018-09-30T00:36:42.430Z,10.10
2018-09-30T00:39:11.120Z,10.10
2018-09-30T00:41:39.683Z,10.00
2018-09-30T00:44:09.115Z,10.00
2018-09-30T00:46:37.508Z,10.00
2018-09-30T00:49:06.727Z,10.00
2018-09-30T00:51:35.198Z,10.00
2018-09-30T00:54:03.915Z,9.90
2018-09-30T00:56:32.800Z,9.90
2018-09-30T00:59:01.311Z,9.90
2018-09-30T01:01:29.906Z,9.90
2018-09-30T01:03:58.499Z,9.90
2018-09-30T01:06:27.270Z,9.90
2018-09-30T01:08:55.584Z,9.90
2018-09-30T01:11:24.340Z,9.90
2018-09-30T01:13:52.971Z,9.90
2018-09-30T01:16:21.843Z,9.90
2018-09-30T01:18:50.257Z,9.80
2018-09-30T01:21:18.639Z,9.80
2018-09-30T01:23:47.266Z,9.70
2018-09-30T01:26:16.234Z,9.70
2018-09-30T01:28:44.841Z,9.60
2018-09-30T01:31:13.323Z,9.60
2018-09-30T01:33:42.847Z,9.50
2018-09-30T01:36:11.319Z,9.50
2018-09-30T01:38:39.659Z,9.50
2018-09-30T01:41:08.344Z,9.40
2018-09-30T01:43:36.983Z,9.40
2018-09-30T01:46:05.328Z,9.40
2018-09-30T01:51:26.634Z,9.30
2018-09-30T01:53:55.291Z,9.30
2018-09-30T01:56:23.560Z,9.20
2018-09-30T01:58:52.091Z,9.20
2018-09-30T02:01:20.534Z,9.20
2018-09-30T02:03:49.429Z,9.20
2018-09-30T02:06:18.292Z,9.10
2018-09-30T02:08:46.943Z,9.00
2018-09-30T02:11:15.403Z,9.00
2018-09-30T02:13:44.961Z,9.00
2018-09-30T02:16:13.811Z,8.90
2018-09-30T02:18:45.655Z,8.90
2018-09-30T02:21:14.256Z,8.90
2018-09-30T02:23:43.542Z,8.90
2018-09-30T02:26:13.091Z,8.90
2018-09-30T02:28:41.396Z,8.90
2018-09-30T02:31:09.880Z,8.80
2018-09-30T02:33:38.386Z,8.80
2018-09-30T02:36:07.596Z,8.70
2018-09-30T02:38:36.383Z,8.70
2018-09-30T02:41:05.084Z,8.70
2018-09-30T02:43:33.900Z,8.60
2018-09-30T02:46:03.360Z,8.60
2018-09-30T02:48:32.157Z,8.60
2018-09-30T02:51:00.730Z,8.50
2018-09-30T02:53:33.687Z,8.50
2018-09-30T02:56:02.279Z,8.40
2018-09-30T02:58:31.917Z,8.40
2018-09-30T03:01:00.500Z,8.40
2018-09-30T03:03:29.060Z,8.40
2018-09-30T03:05:57.606Z,8.30
2018-09-30T03:08:32.323Z,8.30
2018-09-30T03:11:02.309Z,8.30
2018-09-30T03:13:30.995Z,8.30
2018-09-30T03:15:59.492Z,8.30
2018-09-30T03:18:29.374Z,8.30
2018-09-30T03:20:59.334Z,8.30
2018-09-30T03:23:27.756Z,8.30
2018-09-30T03:25:56.092Z,8.30
2018-09-30T03:28:24.768Z,8.30
2018-09-30T03:30:53.250Z,8.30
2018-09-30T03:33:21.919Z,8.20
2018-09-30T03:35:51.232Z,8.20
2018-09-30T03:38:19.723Z,8.20
2018-09-30T03:40:48.371Z,8.20
2018-09-30T03:43:17.087Z,8.10
2018-09-30T03:45:45.575Z,8.00
2018-09-30T03:48:14.610Z,8.00
2018-09-30T03:50:43.198Z,7.90
2018-09-30T03:53:11.848Z,8.00
2018-09-30T03:55:40.475Z,7.90
2018-09-30T03:58:09.046Z,7.80
2018-09-30T04:00:37.684Z,7.70
2018-09-30T04:03:06.547Z,7.80
2018-09-30T04:05:35.128Z,7.80
2018-09-30T04:08:03.529Z,7.70
2018-09-30T04:10:31.825Z,7.70
2018-09-30T04:13:00.543Z,7.60
2018-09-30T04:15:29.222Z,7.60
2018-09-30T04:17:57.880Z,7.60
2018-09-30T04:20:26.749Z,7.60
2018-09-30T04:22:55.596Z,7.50
2018-09-30T04:25:24.054Z,7.40
2018-09-30T04:27:52.806Z,7.30
2018-09-30T04:30:21.286Z,7.30
2018-09-30T04:32:49.716Z,7.30
2018-09-30T04:35:18.679Z,7.40
2018-09-30T04:37:47.551Z,7.40
2018-09-30T04:40:15.963Z,7.40
2018-09-30T04:42:44.606Z,7.40
2018-09-30T04:45:13.354Z,7.40
2018-09-30T04:47:41.822Z,7.30
2018-09-30T04:50:10.417Z,7.40
2018-09-30T04:52:39.206Z,7.30
2018-09-30T04:55:07.679Z,7.40
2018-09-30T04:57:36.409Z,7.30
2018-09-30T05:00:05.179Z,7.30
2018-09-30T05:02:33.961Z,7.30
2018-09-30T05:05:02.869Z,7.30
2018-09-30T05:07:32.157Z,7.30
2018-09-30T05:10:00.661Z,7.30
2018-09-30T05:12:29.731Z,7.30
2018-09-30T05:14:58.194Z,7.30
2018-09-30T05:17:27.337Z,7.30
2018-09-30T05:19:56.573Z,7.30
2018-09-30T05:22:25.895Z,7.20
2018-09-30T05:24:54.785Z,7.30
2018-09-30T05:27:23.299Z,7.30
2018-09-30T05:29:52.415Z,7.30
2018-09-30T05:32:21.627Z,7.30
2018-09-30T05:34:50.995Z,7.30
2018-09-30T05:37:19.564Z,7.30
2018-09-30T05:39:47.992Z,7.30
2018-09-30T05:42:16.900Z,7.30
2018-09-30T05:44:45.691Z,7.30
2018-09-30T05:47:14.678Z,7.30
2018-09-30T05:49:43.721Z,7.30
2018-09-30T05:52:12.371Z,7.30
2018-09-30T05:54:40.843Z,7.30
2018-09-30T05:57:09.889Z,7.30
2018-09-30T05:59:38.246Z,7.30
2018-09-30T06:02:06.618Z,7.30
2018-09-30T06:04:35.239Z,7.30
2018-09-30T06:07:04.147Z,7.30
2018-09-30T06:09:33.083Z,7.30
2018-09-30T06:12:03.324Z,7.30
2018-09-30T06:14:33.127Z,7.30
2018-09-30T06:17:02.499Z,7.40
2018-09-30T06:19:31.865Z,7.40
2018-09-30T06:22:01.358Z,7.40
2018-09-30T06:24:31.048Z,7.40
2018-09-30T06:27:01.518Z,7.40
2018-09-30T06:29:30.646Z,7.40
2018-09-30T06:32:04.533Z,7.40
2018-09-30T06:34:33.246Z,7.40
2018-09-30T06:37:03.732Z,7.50
2018-09-30T06:39:33.545Z,7.40
2018-09-30T06:42:03.015Z,7.30
2018-09-30T06:44:31.950Z,7.30
2018-09-30T06:47:00.728Z,7.20
2018-09-30T06:49:29.652Z,7.10
2018-09-30T06:51:58.978Z,7.10
2018-09-30T06:54:28.690Z,7.10
2018-09-30T06:56:57.972Z,7.10
2018-09-30T06:59:26.800Z,7.10
2018-09-30T07:01:56.965Z,7.20
2018-09-30T07:04:27.346Z,7.20
2018-09-30T07:06:57.767Z,7.20
2018-09-30T07:09:27.475Z,7.30
2018-09-30T07:11:57.150Z,7.40
2018-09-30T07:14:27.434Z,7.50
2018-09-30T07:16:56.475Z,7.50
2018-09-30T07:19:25.877Z,7.50
2018-09-30T07:21:56.769Z,7.60
2018-09-30T07:24:26.637Z,7.60
2018-09-30T07:26:56.226Z,7.70
2018-09-30T07:29:24.763Z,7.80
2018-09-30T07:31:53.663Z,7.90
2018-09-30T07:34:22.316Z,8.00
2018-09-30T07:36:50.936Z,8.10
2018-09-30T07:39:19.551Z,8.30
2018-09-30T07:41:48.172Z,8.30
2018-09-30T07:44:17.870Z,8.50
2018-09-30T07:46:47.416Z,8.60
2018-09-30T07:49:22.546Z,8.70
2018-09-30T07:51:51.951Z,8.80
2018-09-30T07:54:20.747Z,8.90
2018-09-30T07:56:49.298Z,9.00
2018-09-30T07:59:17.762Z,9.10
2018-09-30T08:08:30.979Z,9.30
2018-09-30T08:11:00.181Z,9.60
2018-09-30T08:13:28.674Z,9.70
2018-09-30T08:15:57.207Z,9.80
2018-09-30T08:18:26.028Z,10.00
2018-09-30T08:20:55.126Z,10.20
2018-09-30T08:23:25.395Z,10.30
2018-09-30T08:25:54.146Z,10.40
2018-09-30T08:28:24.101Z,10.60
2018-09-30T08:30:53.466Z,10.80
2018-09-30T08:33:22.230Z,11.00
2018-09-30T08:35:56.315Z,11.10
2018-09-30T08:38:34.855Z,11.30
2018-09-30T08:41:05.518Z,11.50
2018-09-30T08:43:35.570Z,11.60
2018-09-30T08:46:04.222Z,11.80
2018-09-30T08:48:32.971Z,12.00
2018-09-30T08:51:02.120Z,12.20
2018-09-30T08:53:30.119Z,12.40
2018-09-30T08:55:58.671Z,12.60
2018-09-30T08:58:27.590Z,12.80
2018-09-30T09:00:55.576Z,13.10
2018-09-30T09:03:24.894Z,13.30
2018-09-30T09:05:53.612Z,13.60
2018-09-30T09:08:22.386Z,13.90
2018-09-30T09:10:51.532Z,14.10
2018-09-30T09:13:20.880Z,14.30
2018-09-30T09:15:48.943Z,14.60
2018-09-30T09:18:17.870Z,14.80
2018-09-30T09:20:46.734Z,15.10
2018-09-30T09:23:15.361Z,15.30
2018-09-30T09:25:43.983Z,15.60
2018-09-30T09:28:13.798Z,15.90
2018-09-30T09:30:47.956Z,16.20
2018-09-30T09:33:17.187Z,16.50
2018-09-30T09:35:51.975Z,16.90
2018-09-30T09:38:29.564Z,17.30
2018-09-30T09:41:08.639Z,17.70
2018-09-30T09:43:47.418Z,18.00
2018-09-30T09:46:18.235Z,18.40
2018-09-30T09:48:46.819Z,18.90
2018-09-30T09:51:15.195Z,19.30
2018-09-30T09:53:45.298Z,19.70
2018-09-30T09:56:14.432Z,20.00
2018-09-30T09:58:43.356Z,20.40
2018-09-30T10:01:11.450Z,20.60
2018-09-30T10:03:40.476Z,20.90
2018-09-30T10:06:08.487Z,20.90
2018-09-30T10:08:38.423Z,21.10
2018-09-30T10:11:07.873Z,21.50
2018-09-30T10:13:37.006Z,21.70
2018-09-30T10:16:07.179Z,21.90
2018-09-30T10:18:36.524Z,22.00
2018-09-30T10:21:07.444Z,22.20
2018-09-30T10:23:36.298Z,21.90
2018-09-30T10:26:07.920Z,21.70
2018-09-30T10:28:37.785Z,21.90
2018-09-30T10:31:11.186Z,21.80
2018-09-30T10:33:40.773Z,21.60
2018-09-30T10:36:09.407Z,22.00
2018-09-30T10:38:38.186Z,22.30
2018-09-30T10:41:10.612Z,22.70
2018-09-30T10:43:41.091Z,23.10
2018-09-30T10:46:12.522Z,22.90
2018-09-30T10:48:41.638Z,23.10
2018-09-30T10:51:11.267Z,23.20
2018-09-30T10:53:41.245Z,23.10
2018-09-30T10:56:12.154Z,22.30
2018-09-30T10:58:41.116Z,22.70
2018-09-30T11:01:09.786Z,22.90
2018-09-30T11:03:39.590Z,22.90
2018-09-30T11:06:09.180Z,23.20
2018-09-30T11:08:38.647Z,22.80
2018-09-30T11:11:08.535Z,22.10
2018-09-30T11:13:38.751Z,22.10
2018-09-30T11:16:08.315Z,22.00
2018-09-30T11:18:37.395Z,22.40
2018-09-30T11:21:07.033Z,22.90
2018-09-30T11:23:37.304Z,23.10
2018-09-30T11:26:07.194Z,23.40
2018-09-30T11:28:36.243Z,23.80
2018-09-30T11:31:18.352Z,23.50
2018-09-30T11:33:51.768Z,22.80
2018-09-30T11:36:22.296Z,22.20
2018-09-30T11:38:50.425Z,22.10
2018-09-30T11:41:24.631Z,21.70
2018-09-30T11:43:54.767Z,21.40
2018-09-30T11:46:22.864Z,21.60
2018-09-30T11:51:48.964Z,22.40
2018-09-30T11:54:18.044Z,22.00
2018-09-30T11:56:49.748Z,21.50
2018-09-30T11:59:18.324Z,21.00
2018-09-30T12:01:48.230Z,20.70
2018-09-30T12:04:19.733Z,20.90
2018-09-30T12:06:51.644Z,21.10
2018-09-30T12:09:22.437Z,21.50
2018-09-30T12:11:54.868Z,21.80
2018-09-30T12:14:23.680Z,21.70
2018-09-30T12:16:56.044Z,21.40
2018-09-30T12:19:25.430Z,21.10
2018-09-30T12:21:55.500Z,20.90
2018-09-30T12:24:23.979Z,20.70
2018-09-30T12:26:54.577Z,20.50
2018-09-30T12:29:25.913Z,20.20
2018-09-30T12:31:54.981Z,20.10
2018-09-30T12:34:26.496Z,20.00
2018-09-30T12:36:57.134Z,20.00
2018-09-30T12:39:26.999Z,20.10
2018-09-30T12:41:55.662Z,20.10
2018-09-30T12:44:25.160Z,20.10
2018-09-30T12:46:54.040Z,20.20
2018-09-30T12:49:27.882Z,20.20
2018-09-30T12:51:58.526Z,20.10
2018-09-30T12:54:27.332Z,19.90
2018-09-30T12:56:59.847Z,19.80
2018-09-30T12:59:28.848Z,19.60
2018-09-30T13:02:00.331Z,19.50
2018-09-30T13:04:33.256Z,19.50
2018-09-30T13:07:03.811Z,19.50
2018-09-30T13:09:32.317Z,19.60
2018-09-30T13:12:02.764Z,19.70
2018-09-30T13:14:32.740Z,19.70
2018-09-30T13:17:01.694Z,19.70
2018-09-30T13:19:31.723Z,19.70
2018-09-30T13:22:01.449Z,19.80
2018-09-30T13:24:31.323Z,19.80
2018-09-30T13:27:01.379Z,19.80
2018-09-30T13:29:31.550Z,19.70
2018-09-30T13:32:01.198Z,19.50
2018-09-30T13:34:32.186Z,19.40
2018-09-30T13:37:03.671Z,19.30
2018-09-30T13:39:34.494Z,19.40
2018-09-30T13:42:03.459Z,19.50
2018-09-30T13:44:33.613Z,19.50
2018-09-30T13:47:09.700Z,19.30
2018-09-30T13:49:44.424Z,19.20
2018-09-30T13:52:16.355Z,19.10
2018-09-30T13:54:47.652Z,19.20
2018-09-30T13:57:20.544Z,19.30
2018-09-30T13:59:50.213Z,19.20
2018-09-30T14:02:19.767Z,19.10
2018-09-30T14:04:49.464Z,19.00
2018-09-30T14:07:20.180Z,18.90
2018-09-30T14:09:51.352Z,18.80
2018-09-30T14:12:25.491Z,18.70
2018-09-30T14:14:56.715Z,18.60
2018-09-30T14:17:27.399Z,18.60
2018-09-30T14:20:14.264Z,18.40
2018-09-30T14:22:53.766Z,18.30
2018-09-30T14:25:25.625Z,18.40
2018-09-30T14:27:59.128Z,18.30
2018-09-30T14:30:29.649Z,18.40
2018-09-30T14:33:08.055Z,18.40
2018-09-30T14:35:40.030Z,18.40
2018-09-30T14:38:09.422Z,18.40
2018-09-30T14:40:38.571Z,18.40
2018-09-30T14:43:13.034Z,18.40
2018-09-30T14:45:47.477Z,18.30
2018-09-30T14:48:27.918Z,18.30
2018-09-30T14:51:00.013Z,18.20
2018-09-30T14:53:28.751Z,18.10
2018-09-30T14:55:59.978Z,18.10
2018-09-30T14:58:31.383Z,18.00
2018-09-30T15:01:01.332Z,18.00
2018-09-30T15:03:32.825Z,17.90
2018-09-30T15:06:02.195Z,17.80
2018-09-30T15:08:31.863Z,17.80
2018-09-30T15:11:00.379Z,17.70
2018-09-30T15:13:30.670Z,17.60
2018-09-30T15:16:04.247Z,17.50
2018-09-30T15:18:33.487Z,17.40
2018-09-30T15:21:03.393Z,17.30
2018-09-30T15:23:40.733Z,17.20
2018-09-30T15:26:12.634Z,17.20
2018-09-30T15:28:43.602Z,17.10
2018-09-30T15:31:13.756Z,17.00
2018-09-30T15:33:47.629Z,16.90
2018-09-30T15:36:16.108Z,16.90
2018-09-30T15:38:47.421Z,16.80
2018-09-30T15:41:18.723Z,16.80
2018-09-30T15:43:49.803Z,16.80
2018-09-30T15:46:21.710Z,16.80
2018-09-30T15:48:50.264Z,16.70
2018-09-30T15:51:30.901Z,16.60
2018-09-30T15:54:01.168Z,16.60
2018-09-30T15:56:32.514Z,16.50
2018-09-30T15:59:02.188Z,16.50
2018-09-30T16:01:31.959Z,16.60
2018-09-30T16:04:04.301Z,16.60
2018-09-30T16:06:35.450Z,16.70
2018-09-30T16:09:08.637Z,16.60
2018-09-30T16:11:37.894Z,16.60
2018-09-30T16:14:10.191Z,16.60
2018-09-30T16:16:42.093Z,16.60
2018-09-30T16:19:10.833Z,16.50
2018-09-30T16:21:45.728Z,16.50
2018-09-30T16:24:28.721Z,16.40
2018-09-30T16:27:01.676Z,16.30
2018-09-30T16:29:33.970Z,16.20
2018-09-30T16:32:03.753Z,16.10
2018-09-30T16:34:36.532Z,16.10
2018-09-30T16:37:05.330Z,16.00
2018-09-30T16:39:38.996Z,16.00
2018-09-30T16:42:11.201Z,15.90
2018-09-30T16:44:42.973Z,15.90
2018-09-30T16:47:16.572Z,15.80
2018-09-30T16:49:50.866Z,15.70
2018-09-30T16:52:22.713Z,15.60
2018-09-30T16:54:54.889Z,15.50
2018-09-30T16:57:34.139Z,15.50
2018-09-30T17:00:04.261Z,15.50
2018-09-30T17:02:35.991Z,15.40
2018-09-30T17:05:15.394Z,15.40
2018-09-30T17:07:50.090Z,15.30
2018-09-30T17:10:20.634Z,15.30
2018-09-30T17:12:52.277Z,15.30
2018-09-30T17:15:24.050Z,15.30
2018-09-30T17:17:54.693Z,15.20
2018-09-30T17:20:24.943Z,15.20
2018-09-30T17:22:55.038Z,15.20
2018-09-30T17:25:27.246Z,15.10
2018-09-30T17:27:57.646Z,15.10
2018-09-30T17:30:26.110Z,15.10
2018-09-30T17:32:55.947Z,15.00
2018-09-30T17:35:27.015Z,15.00
2018-09-30T17:38:01.565Z,15.00
2018-09-30T17:40:31.649Z,15.00
2018-09-30T17:43:04.331Z,15.00
2018-09-30T17:45:38.795Z,14.90
2018-09-30T17:48:11.382Z,14.90
2018-09-30T17:50:40.389Z,14.90
2018-09-30T17:53:14.776Z,14.90
2018-09-30T17:55:43.451Z,14.90
2018-09-30T17:58:15.411Z,14.80
2018-09-30T18:00:45.730Z,14.80
2018-09-30T18:03:28.394Z,14.80
2018-09-30T18:05:57.282Z,14.80
2018-09-30T18:08:34.947Z,14.70
2018-09-30T18:11:04.242Z,14.80
2018-09-30T18:13:34.910Z,14.80
2018-09-30T18:16:05.030Z,14.70
2018-09-30T18:18:34.133Z,14.70
2018-09-30T18:21:02.985Z,14.70
2018-09-30T18:23:32.347Z,14.70
2018-09-30T18:26:04.166Z,14.70
2018-09-30T18:28:38.863Z,14.60
2018-09-30T18:31:10.111Z,14.70
2018-09-30T18:33:43.462Z,14.60
2018-09-30T18:36:17.439Z,14.60
2018-09-30T18:38:49.810Z,14.50
2018-09-30T18:41:20.873Z,14.50
2018-09-30T18:43:53.491Z,14.50
2018-09-30T18:46:22.584Z,14.50
2018-09-30T18:48:52.469Z,14.40
2018-09-30T18:51:25.264Z,14.40
2018-09-30T18:53:53.970Z,14.40
2018-09-30T18:56:24.239Z,14.30
2018-09-30T18:58:52.943Z,14.30
2018-09-30T19:01:23.572Z,14.30
2018-09-30T19:04:02.215Z,14.30
2018-09-30T19:06:39.331Z,14.20
2018-09-30T19:09:10.983Z,14.20
2018-09-30T19:11:43.069Z,14.20
2018-09-30T19:14:25.851Z,14.20
2018-09-30T19:16:57.401Z,14.20
2018-09-30T19:19:41.336Z,14.20
2018-09-30T19:22:15.027Z,14.20
2018-09-30T19:24:53.499Z,14.20
2018-09-30T19:27:30.118Z,14.10
2018-09-30T19:30:05.311Z,14.00
2018-09-30T19:32:38.307Z,14.00
2018-09-30T19:35:14.305Z,14.00
2018-09-30T19:37:54.094Z,13.90
2018-09-30T19:40:26.262Z,13.90
2018-09-30T19:42:58.064Z,13.90
2018-09-30T19:45:30.371Z,13.80
2018-09-30T19:48:04.566Z,13.80
2018-09-30T19:50:38.581Z,13.80
2018-09-30T19:53:12.396Z,13.80
2018-09-30T19:55:44.001Z,13.80
2018-09-30T19:58:14.479Z,13.80
2018-09-30T20:00:44.840Z,13.70
2018-09-30T20:03:15.986Z,13.70
2018-09-30T20:05:46.716Z,13.70
2018-09-30T20:08:17.417Z,13.70
2018-09-30T20:10:46.872Z,13.60
2018-09-30T20:13:16.083Z,13.60
2018-09-30T20:15:44.918Z,13.60
2018-09-30T20:18:14.755Z,13.60
2018-09-30T20:20:45.257Z,13.60
2018-09-30T20:23:14.445Z,13.50
2018-09-30T20:25:45.017Z,13.50
2018-09-30T20:28:15.050Z,13.50
2018-09-30T20:30:44.800Z,13.50
2018-09-30T20:33:13.614Z,13.50
2018-09-30T20:35:44.393Z,13.50
2018-09-30T20:38:19.709Z,13.40
2018-09-30T20:40:50.297Z,13.40
2018-09-30T20:43:19.463Z,13.40
2018-09-30T20:45:48.619Z,13.40
2018-09-30T20:48:18.624Z,13.30
2018-09-30T20:50:49.345Z,13.30
2018-09-30T20:53:19.227Z,13.30
2018-09-30T20:55:57.447Z,13.20
2018-09-30T20:58:35.555Z,13.20
2018-09-30T21:01:06.033Z,13.20
2018-09-30T21:03:36.514Z,13.20
2018-09-30T21:06:22.479Z,13.20
2018-09-30T21:08:53.800Z,13.20
2018-09-30T21:11:25.364Z,13.20
2018-09-30T21:13:55.005Z,13.20
2018-09-30T21:16:24.166Z,13.20
2018-09-30T21:18:56.088Z,13.10
2018-09-30T21:21:25.251Z,13.20
2018-09-30T21:23:55.013Z,13.10
2018-09-30T21:26:24.775Z,13.10
2018-09-30T21:28:54.656Z,13.00
2018-09-30T21:31:24.663Z,13.00
2018-09-30T21:33:55.141Z,13.10
2018-09-30T21:36:24.785Z,13.00
2018-09-30T21:38:57.666Z,13.10
2018-09-30T21:41:26.708Z,13.00
2018-09-30T21:43:56.471Z,13.00
2018-09-30T21:46:25.991Z,13.00
2018-09-30T21:48:55.700Z,13.10
2018-09-30T21:51:25.520Z,13.00
2018-09-30T21:53:54.798Z,13.00
2018-09-30T21:56:25.403Z,13.00
2018-09-30T21:58:54.564Z,12.90
2018-09-30T22:01:24.535Z,13.00
2018-09-30T22:03:54.088Z,12.90
2018-09-30T22:06:23.488Z,12.90
2018-09-30T22:08:53.250Z,12.90
2018-09-30T22:11:22.774Z,12.90
2018-09-30T22:13:52.536Z,12.80
2018-09-30T22:16:21.940Z,12.90
2018-09-30T22:18:51.341Z,12.90
2018-09-30T22:21:20.982Z,12.90
2018-09-30T22:23:50.388Z,12.80
2018-09-30T22:26:20.865Z,12.80
2018-09-30T22:28:50.509Z,12.80
2018-09-30T22:31:19.550Z,12.80
2018-09-30T22:33:49.675Z,12.80
2018-09-30T22:36:19.798Z,12.80
2018-09-30T22:38:49.315Z,12.80
2018-09-30T22:41:23.040Z,12.80
2018-09-30T22:43:52.561Z,12.80
2018-09-30T22:46:22.322Z,12.80
2018-09-30T22:48:52.204Z,12.80
2018-09-30T22:51:21.727Z,12.70
2018-09-30T22:53:50.893Z,12.70
2018-09-30T22:56:19.932Z,12.80
2018-09-30T22:58:49.695Z,12.70
2018-09-30T23:01:20.895Z,12.70
2018-09-30T23:03:49.939Z,12.70
2018-09-30T23:06:19.459Z,12.70
2018-09-30T23:08:49.822Z,12.70
2018-09-30T23:11:18.984Z,12.70
2018-09-30T23:13:48.746Z,12.80
2018-09-30T23:16:18.267Z,12.80
2018-09-30T23:18:47.670Z,12.80
2018-09-30T23:21:17.073Z,12.80
2018-09-30T23:23:46.834Z,12.80
2018-09-30T23:26:16.357Z,12.80
2018-09-30T23:28:45.759Z,12.80
2018-09-30T23:31:14.920Z,12.80
2018-09-30T23:33:44.442Z,12.80
2018-09-30T23:36:14.205Z,12.80
2018-09-30T23:38:44.087Z,12.80
2018-09-30T23:41:13.849Z,12.80
2018-09-30T23:43:46.612Z,12.80
2018-09-30T23:46:15.772Z,12.80
2018-09-30T23:48:45.056Z,12.70
2018-09-30T23:51:16.738Z,12.70
2018-09-30T23:53:45.901Z,12.70
2018-09-30T23:56:15.422Z,12.80
2018-09-30T23:58:45.064Z,12.80
